Time;durP1;ratioP1;P1;durP2;ratioP2;P2;SDS_P1;SDS_P2;PMS_P1;PMS_P2;Temp;Humidity;BMP_temperature;BMP_pressure;BME280_temperature;BME280_humidity;BME280_pressure;Samples;Min_cycle;Max_cycle;Signal;HPM_P1;HPM_P2
2022/02/06 00:00:59;;;;;;;3.33;1.15;;;18.60;65.30;;;;;;5000551;28;20205;-56
2022/02/06 00:03:31;;;;;;;3.03;1.60;;;18.60;65.20;;;;;;4994952;28;20299;-49
2022/02/06 00:06:03;;;;;;;2.85;1.30;;;18.60;65.00;;;;;;4993683;28;20201;-52
2022/02/06 00:08:38;;;;;;;6.55;1.38;;;18.70;65.00;;;;;;4993607;28;20221;-57
2022/02/06 00:11:08;;;;;;;4.50;1.20;;;18.70;64.80;;;;;;4993629;28;20624;-49
2022/02/06 00:13:39;;;;;;;4.00;1.50;;;18.80;64.80;;;;;;4993414;28;20205;-56
2022/02/06 00:16:11;;;;;;;2.40;1.30;;;18.80;64.70;;;;;;4992932;28;20538;-53
2022/02/06 00:18:43;;;;;;;3.85;1.50;;;18.80;64.50;;;;;;4993421;28;20198;-49
2022/02/06 00:21:16;;;;;;;2.75;1.27;;;18.80;64.30;;;;;;4993505;28;20221;-55
2022/02/06 00:23:52;;;;;;;2.15;1.20;;;18.90;64.20;;;;;;4993686;28;20200;-52
2022/02/06 00:26:31;;;;;;;4.20;1.42;;;18.90;64.10;;;;;;4993337;28;20201;-58
2022/02/06 00:29:16;;;;;;;1.48;1.08;;;19.00;64.00;;;;;;4992867;28;20221;-51
2022/02/06 00:31:54;;;;;;;2.72;1.35;;;19.00;63.80;;;;;;4992942;28;20709;-49
2022/02/06 00:34:49;;;;;;;2.28;0.95;;;19.00;63.70;;;;;;4993207;28;20243;-46
2022/02/06 00:40:09;;;;;;;3.67;1.58;;;19.10;63.50;;;;;;4993092;28;20208;-52
2022/02/06 00:42:40;;;;;;;2.40;1.15;;;19.20;63.30;;;;;;4992707;28;20221;-52
2022/02/06 00:45:11;;;;;;;2.85;1.40;;;19.20;63.10;;;;;;4992741;28;20205;-55
2022/02/06 00:47:44;;;;;;;1.92;1.17;;;19.20;63.00;;;;;;4993079;28;20193;-55
2022/02/06 00:50:14;;;;;;;4.15;1.10;;;19.30;63.00;;;;;;4992903;28;20197;-50
2022/02/06 00:52:54;;;;;;;3.40;1.42;;;19.30;62.90;;;;;;5007167;28;20208;-51
2022/02/06 00:55:27;;;;;;;1.73;1.00;;;19.40;62.70;;;;;;5012339;28;20204;-54
2022/02/06 00:57:57;;;;;;;2.50;1.30;;;19.40;62.60;;;;;;5012250;28;20200;-50
2022/02/06 01:00:28;;;;;;;2.95;1.15;;;19.40;62.50;;;;;;5009815;28;20251;-52
2022/02/06 01:02:58;;;;;;;1.65;1.20;;;19.50;62.50;;;;;;5001227;28;20276;-53
2022/02/06 01:05:29;;;;;;;1.65;1.05;;;19.50;62.30;;;;;;4992573;28;20248;-57
2022/02/06 01:08:00;;;;;;;2.53;1.17;;;19.50;62.20;;;;;;4991622;28;20201;-47
2022/02/06 01:10:32;;;;;;;2.33;1.17;;;19.50;62.10;;;;;;4992017;28;20221;-46
2022/02/06 01:13:15;;;;;;;1.75;0.90;;;19.60;62.10;;;;;;4992147;28;20221;-54
2022/02/06 01:15:51;;;;;;;2.42;1.15;;;19.60;62.00;;;;;;4991806;28;20720;-48
2022/02/06 01:18:28;;;;;;;2.55;1.13;;;19.60;61.80;;;;;;4992111;28;20555;-55
2022/02/06 01:21:03;;;;;;;1.95;0.95;;;19.60;61.70;;;;;;4992103;28;20201;-54
2022/02/06 01:23:43;;;;;;;2.80;1.20;;;19.70;61.70;;;;;;4992146;28;20193;-45
2022/02/06 01:26:28;;;;;;;2.13;1.02;;;19.70;61.60;;;;;;4991836;28;20197;-57
2022/02/06 01:29:13;;;;;;;1.90;1.00;;;19.70;61.50;;;;;;4991826;28;20221;-52
2022/02/06 02:31:51;;;;;;;1.60;1.02;;;20.30;59.70;;;;;;6044683;22;20182;-48
2022/02/06 02:43:05;;;;;;;1.38;1.05;;;20.30;59.60;;;;;;4990782;28;20260;-51
2022/02/06 02:45:51;;;;;;;1.98;1.33;;;20.30;59.50;;;;;;4990612;28;20657;-49
2022/02/06 02:48:24;;;;;;;3.92;1.38;;;20.40;59.60;;;;;;4974797;28;20272;-55
2022/02/06 02:50:58;;;;;;;1.90;1.10;;;20.30;59.50;;;;;;4971462;28;20198;-45
2022/02/06 02:53:36;;;;;;;1.73;0.98;;;20.30;59.50;;;;;;4971303;28;20190;-47
2022/02/06 02:56:28;;;;;;;2.10;1.13;;;20.40;59.50;;;;;;4971455;28;20208;-58
2022/02/06 02:59:06;;;;;;;2.03;1.23;;;20.40;59.30;;;;;;4971619;28;20666;-50
2022/02/06 03:01:42;;;;;;;2.03;1.10;;;20.40;59.30;;;;;;4970877;28;20224;-45
2022/02/06 03:04:14;;;;;;;1.83;1.00;;;20.40;59.20;;;;;;4970922;28;20221;-53
2022/02/06 03:06:45;;;;;;;1.63;1.00;;;20.40;59.10;;;;;;4970709;28;20657;-45
2022/02/06 03:09:17;;;;;;;2.17;1.15;;;20.40;59.10;;;;;;4971231;28;20230;-49
2022/02/06 03:11:47;;;;;;;2.15;1.08;;;20.50;59.10;;;;;;4974051;28;20214;-44
2022/02/06 03:14:23;;;;;;;3.05;1.60;;;20.40;59.00;;;;;;4971260;28;20202;-49
2022/02/06 03:17:02;;;;;;;3.67;1.58;;;20.50;59.00;;;;;;4971014;28;20193;-51
2022/02/06 03:19:40;;;;;;;6.10;1.98;;;20.50;58.90;;;;;;4971363;28;20194;-48
2022/02/06 03:22:19;;;;;;;3.55;1.52;;;20.50;59.50;;;;;;4985142;28;20253;-47
2022/02/06 03:24:55;;;;;;;3.97;1.80;;;20.50;58.80;;;;;;4987792;28;20267;-51
2022/02/06 03:27:26;;;;;;;3.72;1.50;;;20.60;58.80;;;;;;4987694;28;20201;-50
2022/02/06 03:29:56;;;;;;;2.65;1.65;;;20.50;58.70;;;;;;4988523;28;20221;-48
2022/02/06 03:32:27;;;;;;;3.00;1.60;;;20.50;58.70;;;;;;4992016;28;20570;-47
2022/02/06 03:35:00;;;;;;;3.60;1.67;;;20.60;58.70;;;;;;4992761;28;20244;-41
2022/02/06 03:37:30;;;;;;;4.38;1.65;;;20.50;58.70;;;;;;4992763;28;20545;-46
2022/02/06 03:40:04;;;;;;;4.00;1.75;;;20.60;58.70;;;;;;4990010;28;20210;-41
2022/02/06 03:42:42;;;;;;;4.38;1.50;;;20.60;58.70;;;;;;4992387;28;20227;-46
2022/02/06 03:45:19;;;;;;;4.00;1.75;;;20.60;58.70;;;;;;4988624;28;21063;-48
2022/02/06 03:47:55;;;;;;;5.43;1.90;;;20.60;58.60;;;;;;4991364;28;20228;-52
2022/02/06 03:50:33;;;;;;;4.72;1.50;;;20.60;58.50;;;;;;4992190;28;20225;-51
2022/02/06 03:53:04;;;;;;;2.42;1.45;;;20.60;58.50;;;;;;4991920;28;20213;-41
2022/02/06 03:55:37;;;;;;;1.95;1.40;;;20.60;58.50;;;;;;4992847;28;21089;-43
2022/02/06 03:58:08;;;;;;;2.70;1.33;;;20.60;58.40;;;;;;4992221;28;20230;-41
2022/02/06 04:00:38;;;;;;;2.55;1.30;;;20.60;58.40;;;;;;4991290;28;20847;-47
2022/02/06 04:03:09;;;;;;;3.38;1.33;;;20.60;58.40;;;;;;4991618;28;20267;-45
2022/02/06 04:05:45;;;;;;;3.10;1.52;;;20.60;58.40;;;;;;4991432;28;20185;-45
2022/02/06 04:08:18;;;;;;;2.28;1.45;;;20.60;58.30;;;;;;4991615;28;20277;-45
2022/02/06 04:10:51;;;;;;;2.17;1.33;;;20.60;58.30;;;;;;4989394;28;20279;-42
2022/02/06 04:13:24;;;;;;;3.03;1.38;;;20.60;58.30;;;;;;4991453;28;20229;-42
2022/02/06 04:15:59;;;;;;;3.20;1.80;;;20.60;58.30;;;;;;4991860;28;20285;-44
2022/02/06 04:18:40;;;;;;;3.25;1.45;;;20.60;58.30;;;;;;4990626;28;20193;-42
2022/02/06 04:21:12;;;;;;;2.35;1.50;;;20.60;58.30;;;;;;4990329;28;20841;-43
2022/02/06 04:23:43;;;;;;;2.88;1.55;;;20.60;58.30;;;;;;4992020;28;20260;-48
2022/02/06 04:26:13;;;;;;;2.05;1.40;;;20.60;58.30;;;;;;4990337;28;20774;-46
2022/02/06 04:28:44;;;;;;;2.60;1.50;;;20.60;58.20;;;;;;4991929;28;20194;-44
2022/02/06 04:31:15;;;;;;;3.28;1.30;;;20.60;58.20;;;;;;4991821;28;20595;-44
2022/02/06 04:33:46;;;;;;;2.13;1.00;;;20.60;58.20;;;;;;4991152;28;20224;-45
2022/02/06 04:36:19;;;;;;;2.83;1.42;;;20.60;58.10;;;;;;4991451;28;20259;-43
2022/02/06 04:39:02;;;;;;;2.75;1.52;;;20.60;58.10;;;;;;4991055;28;20197;-42
2022/02/06 04:41:48;;;;;;;3.08;1.50;;;20.60;58.00;;;;;;4991215;28;20271;-41
2022/02/06 05:15:22;;;;;;;1.75;1.08;;;20.70;57.70;;;;;;4990634;28;20226;-41
2022/02/06 05:23:46;;;;;;;2.53;1.10;;;20.70;57.70;;;;;;4958277;28;20224;-45
2022/02/06 05:29:18;;;;;;;1.83;1.40;;;20.70;57.70;;;;;;4990670;28;20217;-47
2022/02/06 05:32:01;;;;;;;2.75;1.50;;;20.70;57.70;;;;;;4991346;28;20213;-51
2022/02/06 05:34:31;;;;;;;2.38;1.45;;;20.70;57.70;;;;;;4989425;28;20198;-45
2022/02/06 05:37:02;;;;;;;1.52;1.33;;;20.70;57.70;;;;;;4990949;28;20645;-49
2022/02/06 05:39:32;;;;;;;2.13;1.20;;;20.70;57.70;;;;;;4990211;28;20190;-45
2022/02/06 05:42:05;;;;;;;2.35;1.55;;;20.70;57.70;;;;;;4990734;28;20260;-51
2022/02/06 05:44:37;;;;;;;1.45;1.20;;;20.70;57.60;;;;;;4989815;28;20197;-57
2022/02/06 05:47:08;;;;;;;2.33;1.20;;;20.70;57.60;;;;;;4990451;28;20197;-50
2022/02/06 05:49:39;;;;;;;2.80;1.52;;;20.70;57.60;;;;;;4987195;28;20226;-47
2022/02/06 05:52:10;;;;;;;2.00;1.08;;;20.70;57.60;;;;;;4990501;28;20225;-53
2022/02/06 05:54:41;;;;;;;2.55;1.40;;;20.70;57.60;;;;;;4990167;28;20229;-51
2022/02/06 05:57:13;;;;;;;1.73;1.00;;;20.70;57.50;;;;;;4989771;28;20194;-51
2022/02/06 05:59:44;;;;;;;2.33;1.20;;;20.70;57.60;;;;;;4990023;28;20197;-47
2022/02/06 06:02:17;;;;;;;2.22;1.40;;;20.70;57.60;;;;;;4989340;28;20746;-51
2022/02/06 06:04:47;;;;;;;2.10;1.17;;;20.70;57.60;;;;;;4972013;28;20562;-57
2022/02/06 06:07:18;;;;;;;1.67;1.25;;;20.70;57.60;;;;;;4972544;28;20202;-51
2022/02/06 06:09:48;;;;;;;1.45;1.20;;;20.70;57.60;;;;;;4971653;28;20277;-47
2022/02/06 06:12:21;;;;;;;2.47;1.30;;;20.70;57.60;;;;;;4971741;28;20613;-46
2022/02/06 06:14:51;;;;;;;1.58;1.20;;;20.70;57.60;;;;;;4971757;28;20199;-46
2022/02/06 06:17:22;;;;;;;2.25;1.00;;;20.70;57.50;;;;;;4970687;28;20193;-43
2022/02/06 06:19:55;;;;;;;1.92;1.10;;;20.70;57.50;;;;;;4971491;28;20275;-44
2022/02/06 06:22:25;;;;;;;3.47;1.50;;;20.70;57.50;;;;;;4971378;28;20296;-46
2022/02/06 06:24:58;;;;;;;1.92;1.27;;;20.70;57.50;;;;;;4971437;28;20202;-57
2022/02/06 06:27:31;;;;;;;1.40;1.10;;;20.70;57.80;;;;;;4970580;28;20202;-47
2022/02/06 06:30:01;;;;;;;1.95;1.20;;;20.70;57.40;;;;;;4975632;28;20260;-46
2022/02/06 06:32:32;;;;;;;2.00;1.10;;;20.70;57.60;;;;;;4971167;28;20273;-41
2022/02/06 06:35:03;;;;;;;2.13;1.02;;;20.70;57.40;;;;;;4984159;28;20202;-46
2022/02/06 06:37:34;;;;;;;1.70;1.00;;;20.70;57.40;;;;;;4990992;28;20284;-44
2022/02/06 06:40:05;;;;;;;1.63;1.15;;;20.70;57.40;;;;;;4990942;28;20236;-46
2022/02/06 06:42:37;;;;;;;2.53;1.30;;;20.70;57.40;;;;;;4991022;28;20218;-46
2022/02/06 06:45:09;;;;;;;1.48;1.05;;;20.70;57.40;;;;;;4991136;28;20202;-43
2022/02/06 06:47:40;;;;;;;1.88;1.00;;;20.70;57.30;;;;;;4974534;28;20289;-44
2022/02/06 06:50:11;;;;;;;1.35;1.10;;;20.70;57.40;;;;;;4971552;28;20564;-52
2022/02/06 06:52:41;;;;;;;1.60;1.20;;;20.70;57.40;;;;;;4971322;28;20222;-46
2022/02/06 06:55:15;;;;;;;2.70;1.42;;;20.70;57.30;;;;;;4971436;28;20245;-43
2022/02/06 06:57:55;;;;;;;1.52;1.10;;;20.70;57.30;;;;;;4971262;28;20203;-43
2022/02/06 07:00:38;;;;;;;1.73;1.02;;;20.70;57.40;;;;;;4971514;28;20206;-41
2022/02/06 07:03:08;;;;;;;1.85;1.30;;;20.60;57.20;;;;;;4970795;28;20229;-44
2022/02/06 07:05:39;;;;;;;2.63;1.60;;;20.70;57.30;;;;;;4973058;28;20190;-44
2022/02/06 07:08:10;;;;;;;1.88;1.00;;;20.60;57.30;;;;;;4970494;28;20210;-43
2022/02/06 07:10:40;;;;;;;3.67;1.63;;;20.70;57.30;;;;;;4971319;28;20249;-45
2022/02/06 07:13:13;;;;;;;5.07;2.00;;;20.70;57.40;;;;;;4971071;28;20214;-51
2022/02/06 07:15:44;;;;;;;3.80;1.63;;;20.70;57.40;;;;;;4971201;28;20278;-48
2022/02/06 07:18:14;;;;;;;7.13;2.30;;;20.70;57.40;;;;;;4970300;28;20721;-49
2022/02/06 07:20:45;;;;;;;5.38;1.92;;;20.70;57.40;;;;;;4970759;28;20213;-48
2022/02/06 07:23:15;;;;;;;3.38;1.52;;;20.70;57.40;;;;;;4979313;28;20216;-53
2022/02/06 07:25:50;;;;;;;4.20;1.67;;;20.70;57.40;;;;;;4990710;28;20201;-45
2022/02/06 07:28:22;;;;;;;3.97;1.92;;;20.70;57.40;;;;;;4990479;28;20205;-42
2022/02/06 07:30:53;;;;;;;3.75;1.52;;;20.70;57.40;;;;;;4990641;28;20280;-50
2022/02/06 07:33:23;;;;;;;4.47;1.83;;;20.70;57.40;;;;;;4977618;28;20289;-45
2022/02/06 07:35:54;;;;;;;4.25;1.70;;;20.60;57.30;;;;;;4970859;28;20453;-41
2022/02/06 07:38:25;;;;;;;3.72;1.80;;;20.60;57.30;;;;;;4970508;28;20257;-43
2022/02/06 07:40:55;;;;;;;3.60;1.67;;;20.60;57.30;;;;;;4970844;28;20614;-42
2022/02/06 07:43:28;;;;;;;2.17;1.58;;;20.60;57.30;;;;;;4970335;28;20277;-44
2022/02/06 07:45:58;;;;;;;3.78;2.03;;;20.70;57.30;;;;;;4970709;28;20210;-41
2022/02/06 07:48:29;;;;;;;2.58;1.40;;;20.60;57.30;;;;;;4970430;28;20753;-43
2022/02/06 07:50:59;;;;;;;3.38;1.67;;;20.60;57.20;;;;;;4970418;28;20225;-46
2022/02/06 07:53:30;;;;;;;2.90;1.38;;;20.60;57.30;;;;;;4970476;28;20277;-53
2022/02/06 07:56:00;;;;;;;3.60;1.63;;;20.60;57.30;;;;;;4970702;28;20201;-47
2022/02/06 07:58:33;;;;;;;4.40;1.80;;;20.60;57.30;;;;;;4970734;28;20202;-52
2022/02/06 08:01:04;;;;;;;2.47;1.40;;;20.60;57.20;;;;;;4973769;28;20222;-52
2022/02/06 08:03:34;;;;;;;2.75;1.60;;;20.60;57.30;;;;;;4987416;28;20697;-52
2022/02/06 08:06:05;;;;;;;3.88;1.83;;;20.60;57.30;;;;;;4985506;28;20201;-42
2022/02/06 08:08:35;;;;;;;2.25;1.50;;;20.60;57.30;;;;;;4988455;28;20216;-55
2022/02/06 08:11:11;;;;;;;2.72;1.60;;;20.60;57.20;;;;;;4987200;28;20261;-55
2022/02/06 08:13:50;;;;;;;2.97;1.60;;;20.60;57.20;;;;;;4987463;28;20213;-58
2022/02/06 08:16:21;;;;;;;3.10;1.60;;;20.60;57.90;;;;;;4987809;28;20201;-59
2022/02/06 08:18:52;;;;;;;2.47;1.60;;;20.60;57.20;;;;;;4989771;28;20251;-55
2022/02/06 08:21:22;;;;;;;2.58;1.90;;;20.60;57.30;;;;;;4991757;28;20256;-51
2022/02/06 08:23:53;;;;;;;2.50;1.50;;;20.60;57.30;;;;;;4991967;28;20814;-44
2022/02/06 08:26:25;;;;;;;2.67;1.52;;;20.50;57.20;;;;;;4992122;28;20389;-53
2022/02/06 08:29:00;;;;;;;3.00;1.63;;;20.50;57.20;;;;;;4991556;28;20672;-49
2022/02/06 08:31:31;;;;;;;3.00;1.45;;;20.50;57.30;;;;;;4992360;28;20734;-48
2022/02/06 08:34:02;;;;;;;3.55;1.80;;;20.50;57.30;;;;;;4990899;28;20206;-58
2022/02/06 08:36:32;;;;;;;3.13;1.65;;;20.50;57.30;;;;;;4992122;28;20202;-46
2022/02/06 08:39:03;;;;;;;3.60;1.73;;;20.50;57.20;;;;;;4991407;28;20205;-55
2022/02/06 08:41:34;;;;;;;3.17;1.48;;;20.50;57.20;;;;;;4991792;28;20206;-53
2022/02/06 08:44:08;;;;;;;3.83;1.65;;;20.50;57.20;;;;;;4991549;28;20193;-59
2022/02/06 08:46:38;;;;;;;3.45;1.65;;;20.50;57.30;;;;;;4990956;28;20653;-49
2022/02/06 08:49:09;;;;;;;2.55;1.58;;;20.40;57.30;;;;;;4991129;28;20316;-51
2022/02/06 08:51:39;;;;;;;3.42;1.67;;;20.40;57.30;;;;;;4989649;28;20221;-48
2022/02/06 08:54:10;;;;;;;2.55;1.52;;;20.40;57.30;;;;;;4990709;28;20202;-43
2022/02/06 08:56:41;;;;;;;3.50;1.58;;;20.40;57.20;;;;;;4991242;28;20285;-59
2022/02/06 08:59:14;;;;;;;4.43;2.05;;;20.40;57.20;;;;;;4991745;28;20601;-55
2022/02/06 09:01:44;;;;;;;2.97;1.65;;;20.40;57.20;;;;;;4990178;28;20222;-51
2022/02/06 09:04:15;;;;;;;2.83;1.50;;;20.40;57.20;;;;;;4991377;28;20681;-49
2022/02/06 09:06:46;;;;;;;3.33;1.50;;;20.40;57.20;;;;;;4990389;28;20202;-53
2022/02/06 09:09:16;;;;;;;2.78;1.60;;;20.40;57.20;;;;;;4989365;28;20229;-48
2022/02/06 09:11:47;;;;;;;2.42;1.52;;;20.40;57.20;;;;;;4990752;28;20300;-54
2022/02/06 09:14:19;;;;;;;2.67;1.50;;;20.40;57.10;;;;;;4990800;28;20212;-48
2022/02/06 09:16:50;;;;;;;2.80;1.65;;;20.40;57.80;;;;;;4990720;28;20201;-41
2022/02/06 09:19:21;;;;;;;2.45;1.50;;;20.30;57.10;;;;;;4990135;28;20244;-46
2022/02/06 09:21:51;;;;;;;3.10;1.45;;;20.40;57.10;;;;;;4990053;28;20217;-51
2022/02/06 09:24:22;;;;;;;2.22;1.52;;;20.40;57.10;;;;;;4990406;28;20198;-51
2022/02/06 09:26:53;;;;;;;2.80;1.40;;;20.30;57.10;;;;;;4991100;28;20603;-53
2022/02/06 09:29:25;;;;;;;2.50;1.45;;;20.30;57.10;;;;;;4990320;28;20198;-51
2022/02/06 09:31:56;;;;;;;2.67;1.60;;;20.30;57.10;;;;;;4991117;28;20745;-52
2022/02/06 09:36:55;;;;;;;2.38;1.50;;;20.30;57.10;;;;;;4990504;28;20211;-53
2022/02/06 09:39:25;;;;;;;2.25;1.70;;;20.30;57.10;;;;;;4990028;28;20252;-54
2022/02/06 09:41:56;;;;;;;3.10;1.67;;;20.30;57.10;;;;;;4990982;28;20276;-46
2022/02/06 09:44:30;;;;;;;3.58;1.40;;;20.30;57.10;;;;;;4990564;28;20197;-55
2022/02/06 09:47:02;;;;;;;4.53;2.00;;;20.30;57.10;;;;;;4989200;28;20251;-59
2022/02/06 09:49:33;;;;;;;3.78;1.50;;;20.30;57.10;;;;;;4987462;28;20575;-59
2022/02/06 09:52:04;;;;;;;3.45;1.60;;;20.30;57.10;;;;;;4990234;28;20229;-56
2022/02/06 09:54:35;;;;;;;3.60;1.85;;;20.30;57.10;;;;;;4989531;28;20198;-48
2022/02/06 09:57:11;;;;;;;3.83;1.42;;;20.20;57.10;;;;;;4990218;28;20240;-45
2022/02/06 09:59:44;;;;;;;2.35;1.40;;;20.20;57.10;;;;;;4990384;28;20668;-41
2022/02/06 10:02:16;;;;;;;1.58;1.23;;;20.20;57.10;;;;;;4987362;28;20217;-47
2022/02/06 10:04:50;;;;;;;2.00;1.17;;;20.20;57.20;;;;;;4989725;28;20197;-51
2022/02/06 10:07:29;;;;;;;2.83;1.25;;;20.20;57.10;;;;;;4989799;28;20299;-52
2022/02/06 10:10:03;;;;;;;2.95;1.40;;;20.20;57.10;;;;;;4990267;28;20201;-53
2022/02/06 10:12:39;;;;;;;3.15;1.73;;;20.20;57.20;;;;;;4989481;28;20237;-48
2022/02/06 10:15:15;;;;;;;2.13;1.40;;;20.20;57.10;;;;;;4988441;28;20354;-51
2022/02/06 10:17:47;;;;;;;2.80;1.40;;;20.20;57.10;;;;;;4987189;28;20193;-50
2022/02/06 10:20:19;;;;;;;2.25;1.30;;;20.20;57.10;;;;;;4988869;28;20198;-49
2022/02/06 10:22:56;;;;;;;3.35;1.90;;;20.20;57.10;;;;;;4988291;28;20792;-41
2022/02/06 10:25:26;;;;;;;3.85;1.83;;;20.20;57.10;;;;;;4988808;28;20235;-51
2022/02/06 10:28:00;;;;;;;2.88;1.95;;;20.20;57.10;;;;;;4989483;28;20197;-48
2022/02/06 10:30:44;;;;;;;2.10;1.60;;;20.20;57.10;;;;;;4987073;28;20194;-54
2022/02/06 10:33:17;;;;;;;1.90;1.50;;;20.20;57.10;;;;;;4989412;28;20221;-49
2022/02/06 10:35:49;;;;;;;2.13;1.60;;;20.10;57.10;;;;;;4986553;28;20202;-48
2022/02/06 10:38:25;;;;;;;2.60;1.50;;;20.20;57.10;;;;;;4972397;28;20614;-46
2022/02/06 10:41:11;;;;;;;1.95;1.50;;;20.10;57.10;;;;;;4972153;28;20249;-46
2022/02/06 10:43:54;;;;;;;2.78;2.08;;;20.10;57.10;;;;;;4971698;28;20221;-41
2022/02/06 10:46:28;;;;;;;3.50;1.83;;;20.10;57.10;;;;;;4971863;28;20195;-49
2022/02/06 10:49:00;;;;;;;3.80;1.80;;;20.10;57.10;;;;;;4971128;28;20248;-51
2022/02/06 10:51:42;;;;;;;2.28;1.58;;;20.10;57.10;;;;;;4976883;28;20217;-42
2022/02/06 10:54:15;;;;;;;3.92;2.00;;;20.10;57.10;;;;;;4978346;28;20198;-41
2022/02/06 10:57:03;;;;;;;3.75;1.90;;;20.00;57.10;;;;;;4976500;28;20249;-41
2022/02/06 10:59:46;;;;;;;1.80;1.52;;;20.10;57.10;;;;;;4978704;28;20194;-44
2022/02/06 11:02:29;;;;;;;2.40;1.70;;;20.10;57.10;;;;;;4977387;28;20284;-42
2022/02/06 11:05:08;;;;;;;2.38;1.50;;;20.10;57.10;;;;;;4980765;28;20895;-45
2022/02/06 11:07:39;;;;;;;3.15;1.50;;;20.10;57.10;;;;;;4980453;28;20766;-42
2022/02/06 11:10:16;;;;;;;3.47;1.90;;;20.10;57.10;;;;;;4977401;28;20197;-49
2022/02/06 11:12:53;;;;;;;2.03;1.60;;;20.00;57.10;;;;;;4976087;28;20276;-40
2022/02/06 11:15:26;;;;;;;3.08;1.70;;;20.00;57.10;;;;;;4978564;28;20197;-43
2022/02/06 11:18:12;;;;;;;2.25;1.45;;;20.00;57.10;;;;;;4979211;28;20662;-40
2022/02/06 11:20:57;;;;;;;2.85;1.50;;;20.10;57.10;;;;;;4980642;28;20217;-41
2022/02/06 11:23:47;;;;;;;2.67;1.58;;;20.00;57.10;;;;;;4977553;28;20703;-47
2022/02/06 11:26:19;;;;;;;2.33;1.48;;;20.00;57.10;;;;;;4979327;28;20189;-48
2022/02/06 11:28:49;;;;;;;2.15;1.30;;;20.00;57.10;;;;;;4977268;28;20196;-41
2022/02/06 11:31:21;;;;;;;3.67;1.50;;;20.00;57.10;;;;;;4978541;28;20230;-42
2022/02/06 11:33:53;;;;;;;1.73;1.27;;;20.00;57.20;;;;;;4977566;28;20221;-47
2022/02/06 11:43:41;;;;;;;2.45;1.40;;;20.00;57.20;;;;;;4978361;28;20677;-48
2022/02/06 11:45:20;;;;;;;1.85;1.55;;;20.00;57.10;;;;;;4976670;28;20228;-47
2022/02/06 11:47:54;;;;;;;2.80;1.42;;;20.00;57.80;;;;;;4952360;28;20246;-47
2022/02/06 11:50:30;;;;;;;2.10;1.38;;;20.00;57.10;;;;;;4951453;28;20256;-48
2022/02/06 11:53:03;;;;;;;2.97;1.60;;;20.00;57.10;;;;;;4967236;28;20574;-52
2022/02/06 11:55:48;;;;;;;2.58;1.77;;;20.00;57.10;;;;;;4974625;28;20571;-43
2022/02/06 11:58:30;;;;;;;4.13;1.95;;;19.90;57.10;;;;;;4974292;28;20256;-49
2022/02/06 12:01:26;;;;;;;1.67;1.35;;;19.90;57.10;;;;;;4974433;28;20198;-45
2022/02/06 12:04:01;;;;;;;2.03;1.45;;;19.90;57.10;;;;;;4974391;28;20635;-47
2022/02/06 12:06:57;;;;;;;1.55;1.10;;;19.90;57.10;;;;;;4974181;28;20202;-41
2022/02/06 12:09:29;;;;;;;3.05;1.50;;;19.90;57.10;;;;;;4986377;28;20617;-45
2022/02/06 12:12:24;;;;;;;2.20;1.45;;;19.90;57.10;;;;;;4993229;28;20225;-41
2022/02/06 12:15:29;;;;;;;2.15;1.50;;;19.90;57.10;;;;;;4993395;28;20197;-43
2022/02/06 12:18:12;;;;;;;1.88;1.30;;;19.90;57.10;;;;;;4954165;28;20693;-42
2022/02/06 12:20:54;;;;;;;2.00;1.48;;;19.90;57.10;;;;;;4983044;28;20261;-43
2022/02/06 12:23:43;;;;;;;2.15;1.40;;;19.80;57.10;;;;;;4983459;28;20229;-47
2022/02/06 12:26:40;;;;;;;1.98;1.10;;;19.90;57.20;;;;;;4993597;28;20251;-45
2022/02/06 12:29:13;;;;;;;1.85;1.40;;;19.90;57.20;;;;;;4993532;28;20204;-41
2022/02/06 12:31:57;;;;;;;2.38;1.38;;;19.80;57.10;;;;;;4993996;28;20628;-44
2022/02/06 12:37:34;;;;;;;2.17;1.30;;;19.80;57.10;;;;;;4983681;28;20349;-46
2022/02/06 12:40:09;;;;;;;2.60;1.20;;;19.80;57.00;;;;;;4973238;28;20203;-55
2022/02/06 12:42:42;;;;;;;1.48;1.20;;;19.80;57.10;;;;;;4973559;28;20289;-52
2022/02/06 12:45:15;;;;;;;1.63;1.33;;;19.80;57.10;;;;;;4973619;28;20615;-48
2022/02/06 12:47:47;;;;;;;2.47;1.20;;;19.80;57.10;;;;;;4973595;28;20202;-54
2022/02/06 12:50:23;;;;;;;1.45;1.17;;;19.80;57.10;;;;;;4973636;28;20650;-47
2022/02/06 12:52:55;;;;;;;3.42;1.35;;;19.80;57.10;;;;;;4973148;28;20241;-56
2022/02/06 12:55:31;;;;;;;2.25;1.30;;;19.80;57.10;;;;;;4973489;28;20202;-45
2022/02/06 12:58:01;;;;;;;2.05;1.23;;;19.80;57.10;;;;;;4973167;28;20206;-50
2022/02/06 13:00:40;;;;;;;1.73;1.20;;;19.80;57.10;;;;;;4973002;28;20511;-46
2022/02/06 13:03:27;;;;;;;2.45;1.38;;;19.80;57.10;;;;;;4972836;28;20308;-50
2022/02/06 13:06:02;;;;;;;1.50;1.13;;;19.80;57.10;;;;;;4972708;28;20252;-42
2022/02/06 13:08:36;;;;;;;1.75;1.23;;;19.70;57.00;;;;;;4972740;28;20209;-45
2022/02/06 13:11:13;;;;;;;1.33;1.02;;;19.70;57.00;;;;;;4984904;28;20190;-45
2022/02/06 13:14:00;;;;;;;2.15;1.20;;;19.80;57.10;;;;;;4992828;28;20748;-49
2022/02/06 13:16:46;;;;;;;1.75;1.20;;;19.80;57.10;;;;;;4992364;28;20202;-48
2022/02/06 13:19:31;;;;;;;2.60;1.50;;;19.80;57.10;;;;;;4989779;28;20221;-51
2022/02/06 13:25:14;;;;;;;1.77;1.08;;;19.80;57.00;;;;;;4988874;28;20236;-43
2022/02/06 13:28:07;;;;;;;1.48;1.10;;;19.80;57.00;;;;;;4992020;28;20562;-44
2022/02/06 13:33:41;;;;;;;2.45;1.30;;;19.70;56.90;;;;;;4992359;28;20597;-52
2022/02/06 13:36:22;;;;;;;2.00;1.10;;;19.70;56.90;;;;;;4992439;28;20204;-51
2022/02/06 13:38:55;;;;;;;1.80;1.00;;;19.70;56.90;;;;;;4974808;28;20198;-49
2022/02/06 13:41:30;;;;;;;2.35;1.48;;;19.70;57.00;;;;;;4972845;28;20229;-46
2022/02/06 13:44:03;;;;;;;1.58;1.17;;;19.70;57.00;;;;;;4972599;28;20222;-44
2022/02/06 13:46:37;;;;;;;1.98;1.10;;;19.70;57.00;;;;;;4972159;28;20253;-40
2022/02/06 13:49:08;;;;;;;1.38;1.10;;;19.70;57.00;;;;;;4972406;28;20305;-45
2022/02/06 13:51:43;;;;;;;1.42;1.20;;;19.70;57.00;;;;;;4972528;28;20222;-46
2022/02/06 13:54:15;;;;;;;1.48;1.20;;;19.70;57.00;;;;;;4971907;28;20837;-48
2022/02/06 13:56:47;;;;;;;1.98;1.20;;;19.60;56.90;;;;;;4971961;28;20202;-49
2022/02/06 13:59:22;;;;;;;1.20;1.10;;;19.70;57.10;;;;;;4971817;28;20816;-48
2022/02/06 14:01:53;;;;;;;1.35;0.95;;;19.60;57.00;;;;;;4971775;28;20297;-42
2022/02/06 14:04:27;;;;;;;1.85;1.23;;;19.70;57.00;;;;;;4971678;28;20202;-43
2022/02/06 14:07:09;;;;;;;2.25;1.13;;;19.60;57.00;;;;;;4972291;28;20447;-50
2022/02/06 14:09:57;;;;;;;1.45;1.00;;;19.70;57.00;;;;;;4972106;28;20202;-48
2022/02/06 14:12:27;;;;;;;1.67;0.93;;;19.70;57.00;;;;;;4971904;28;20233;-50
2022/02/06 14:15:00;;;;;;;1.60;1.20;;;19.70;57.00;;;;;;4971980;28;20654;-47
2022/02/06 14:17:33;;;;;;;1.52;1.00;;;19.60;56.90;;;;;;4971339;28;20233;-46
2022/02/06 14:20:11;;;;;;;1.77;1.05;;;19.70;57.00;;;;;;4971657;28;20277;-47
2022/02/06 14:22:48;;;;;;;1.65;1.23;;;19.60;56.90;;;;;;4975743;28;20684;-46
2022/02/06 14:25:28;;;;;;;1.50;0.98;;;19.60;56.90;;;;;;4991122;28;20201;-46
2022/02/06 14:28:00;;;;;;;1.90;0.98;;;19.60;56.90;;;;;;4991351;28;20197;-45
2022/02/06 14:30:40;;;;;;;1.85;1.23;;;19.60;57.00;;;;;;4991436;28;20201;-43
2022/02/06 14:33:12;;;;;;;1.52;1.27;;;19.60;56.90;;;;;;4991575;28;20236;-44
2022/02/06 14:35:52;;;;;;;1.63;1.10;;;19.60;57.00;;;;;;4991187;28;20292;-45
2022/02/06 14:38:28;;;;;;;2.13;1.10;;;19.60;57.00;;;;;;4980646;28;20245;-43
2022/02/06 14:41:22;;;;;;;1.67;1.10;;;19.60;57.00;;;;;;4971541;28;20782;-47
2022/02/06 14:43:58;;;;;;;1.23;0.90;;;19.60;57.00;;;;;;4971432;28;20226;-49
2022/02/06 14:46:31;;;;;;;1.95;1.02;;;19.60;56.90;;;;;;4971283;28;20198;-47
2022/02/06 14:49:05;;;;;;;3.05;1.25;;;19.60;56.90;;;;;;4971240;28;20590;-42
2022/02/06 14:51:37;;;;;;;2.92;1.00;;;19.60;56.90;;;;;;4971795;28;20253;-53
2022/02/06 14:54:09;;;;;;;0.98;0.88;;;19.60;56.90;;;;;;4970830;28;20222;-48
2022/02/06 14:56:42;;;;;;;0.90;0.80;;;19.60;56.90;;;;;;4971643;28;20209;-45
2022/02/06 14:59:14;;;;;;;1.38;1.10;;;19.60;56.90;;;;;;4971323;28;20285;-41
2022/02/06 15:01:48;;;;;;;1.70;1.13;;;19.50;56.90;;;;;;4971045;28;20202;-45
2022/02/06 15:04:19;;;;;;;1.95;1.33;;;19.60;56.90;;;;;;4971077;28;20285;-47
2022/02/06 15:06:49;;;;;;;1.50;1.20;;;19.60;56.90;;;;;;4971195;28;20616;-41
2022/02/06 15:09:20;;;;;;;1.00;0.90;;;19.60;56.90;;;;;;4982451;28;20202;-50
2022/02/06 15:11:50;;;;;;;1.75;1.10;;;19.50;56.90;;;;;;4990165;28;20189;-40
2022/02/06 15:14:21;;;;;;;1.50;0.82;;;19.50;56.90;;;;;;4990437;28;20197;-45
2022/02/06 15:16:57;;;;;;;1.45;1.00;;;19.50;56.90;;;;;;4990511;28;20201;-45
2022/02/06 15:19:31;;;;;;;1.48;1.02;;;19.50;56.90;;;;;;4990352;28;20638;-46
2022/02/06 15:22:02;;;;;;;1.00;0.85;;;19.50;56.90;;;;;;4990510;28;20197;-47
2022/02/06 15:24:34;;;;;;;1.05;0.90;;;19.50;56.90;;;;;;4975666;28;20197;-48
2022/02/06 15:27:04;;;;;;;1.45;0.95;;;19.50;56.90;;;;;;4971292;28;20194;-53
2022/02/06 15:29:35;;;;;;;2.03;1.10;;;19.50;56.90;;;;;;4975192;28;20323;-45
2022/02/06 15:32:08;;;;;;;1.45;0.90;;;19.50;56.90;;;;;;4975550;28;20214;-46
2022/02/06 15:34:39;;;;;;;1.38;1.00;;;19.50;56.90;;;;;;4975137;28;20202;-53